sensor_id;sensor_type;location;lat;lon;timestamp;P1;durP1;ratioP1;P2;durP2;ratioP2
23990;SDS011;12205;50.600;4.608;2023-11-19T00:01:58;3.63;;;0.88;;
23990;SDS011;12205;50.600;4.608;2023-11-19T00:04:26;10.40;;;1.20;;
23990;SDS011;12205;50.600;4.608;2023-11-19T00:06:55;11.32;;;1.40;;
23990;SDS011;12205;50.600;4.608;2023-11-19T00:09:27;9.77;;;1.08;;
23990;SDS011;12205;50.600;4.608;2023-11-19T00:11:54;9.88;;;1.27;;
23990;SDS011;12205;50.600;4.608;2023-11-19T00:14:22;8.27;;;1.25;;
23990;SDS011;12205;50.600;4.608;2023-11-19T00:16:49;12.27;;;1.63;;
23990;SDS011;12205;50.600;4.608;2023-11-19T00:19:16;11.50;;;1.23;;
23990;SDS011;12205;50.600;4.608;2023-11-19T00:21:45;12.23;;;1.42;;
23990;SDS011;12205;50.600;4.608;2023-11-19T00:24:12;6.18;;;0.90;;
23990;SDS011;12205;50.600;4.608;2023-11-19T00:26:41;8.82;;;1.10;;
23990;SDS011;12205;50.600;4.608;2023-11-19T00:29:08;13.32;;;1.30;;
23990;SDS011;12205;50.600;4.608;2023-11-19T00:31:35;8.65;;;0.90;;
23990;SDS011;12205;50.600;4.608;2023-11-19T00:34:03;9.23;;;1.00;;
23990;SDS011;12205;50.600;4.608;2023-11-19T00:36:31;10.73;;;1.13;;
23990;SDS011;12205;50.600;4.608;2023-11-19T00:39:00;16.30;;;1.67;;
23990;SDS011;12205;50.600;4.608;2023-11-19T00:41:27;8.55;;;0.98;;
23990;SDS011;12205;50.600;4.608;2023-11-19T00:43:54;15.50;;;1.83;;
23990;SDS011;12205;50.600;4.608;2023-11-19T00:46:21;12.02;;;1.30;;
23990;SDS011;12205;50.600;4.608;2023-11-19T00:48:48;12.43;;;1.42;;
23990;SDS011;12205;50.600;4.608;2023-11-19T00:51:15;8.85;;;1.00;;
23990;SDS011;12205;50.600;4.608;2023-11-19T00:53:43;10.85;;;1.00;;
23990;SDS011;12205;50.600;4.608;2023-11-19T00:56:11;17.05;;;1.50;;
23990;SDS011;12205;50.600;4.608;2023-11-19T00:58:39;18.42;;;1.80;;
23990;SDS011;12205;50.600;4.608;2023-11-19T01:01:06;9.65;;;1.17;;
23990;SDS011;12205;50.600;4.608;2023-11-19T01:03:33;10.90;;;1.10;;
23990;SDS011;12205;50.600;4.608;2023-11-19T01:06:01;13.52;;;1.20;;
23990;SDS011;12205;50.600;4.608;2023-11-19T01:08:28;10.23;;;1.25;;
23990;SDS011;12205;50.600;4.608;2023-11-19T01:10:55;15.57;;;1.35;;
23990;SDS011;12205;50.600;4.608;2023-11-19T01:13:23;13.35;;;1.70;;
23990;SDS011;12205;50.600;4.608;2023-11-19T01:15:51;8.27;;;0.93;;
23990;SDS011;12205;50.600;4.608;2023-11-19T01:18:18;17.95;;;1.90;;
23990;SDS011;12205;50.600;4.608;2023-11-19T01:20:45;11.38;;;1.15;;
23990;SDS011;12205;50.600;4.608;2023-11-19T01:23:12;11.48;;;1.40;;
23990;SDS011;12205;50.600;4.608;2023-11-19T01:25:39;12.13;;;1.30;;
23990;SDS011;12205;50.600;4.608;2023-11-19T01:28:07;12.38;;;0.98;;
23990;SDS011;12205;50.600;4.608;2023-11-19T01:30:35;9.77;;;1.20;;
23990;SDS011;12205;50.600;4.608;2023-11-19T01:33:02;8.40;;;1.33;;
23990;SDS011;12205;50.600;4.608;2023-11-19T01:35:30;11.98;;;1.40;;
23990;SDS011;12205;50.600;4.608;2023-11-19T01:37:57;9.70;;;1.15;;
23990;SDS011;12205;50.600;4.608;2023-11-19T01:40:24;17.90;;;1.80;;
23990;SDS011;12205;50.600;4.608;2023-11-19T01:42:51;8.57;;;1.00;;
23990;SDS011;12205;50.600;4.608;2023-11-19T01:45:22;7.93;;;0.90;;
23990;SDS011;12205;50.600;4.608;2023-11-19T01:47:57;10.98;;;1.17;;
23990;SDS011;12205;50.600;4.608;2023-11-19T01:50:28;12.65;;;1.38;;
23990;SDS011;12205;50.600;4.608;2023-11-19T01:52:56;15.50;;;1.40;;
23990;SDS011;12205;50.600;4.608;2023-11-19T01:55:24;19.35;;;1.58;;
23990;SDS011;12205;50.600;4.608;2023-11-19T01:57:53;13.77;;;1.15;;
23990;SDS011;12205;50.600;4.608;2023-11-19T02:00:26;11.85;;;1.10;;
23990;SDS011;12205;50.600;4.608;2023-11-19T02:02:53;10.02;;;1.00;;
23990;SDS011;12205;50.600;4.608;2023-11-19T02:05:21;13.43;;;1.50;;
23990;SDS011;12205;50.600;4.608;2023-11-19T02:07:49;12.48;;;1.27;;
23990;SDS011;12205;50.600;4.608;2023-11-19T02:10:16;14.65;;;1.40;;
23990;SDS011;12205;50.600;4.608;2023-11-19T02:12:44;18.27;;;1.60;;
23990;SDS011;12205;50.600;4.608;2023-11-19T02:15:12;8.48;;;1.00;;
23990;SDS011;12205;50.600;4.608;2023-11-19T02:17:39;16.63;;;1.60;;
23990;SDS011;12205;50.600;4.608;2023-11-19T02:20:08;8.18;;;0.80;;
23990;SDS011;12205;50.600;4.608;2023-11-19T02:22:38;13.63;;;1.05;;
23990;SDS011;12205;50.600;4.608;2023-11-19T02:25:06;9.18;;;0.95;;
23990;SDS011;12205;50.600;4.608;2023-11-19T02:27:48;15.10;;;1.88;;
23990;SDS011;12205;50.600;4.608;2023-11-19T02:30:21;11.25;;;0.90;;
23990;SDS011;12205;50.600;4.608;2023-11-19T02:32:51;10.60;;;1.13;;
23990;SDS011;12205;50.600;4.608;2023-11-19T02:35:19;13.77;;;1.35;;
23990;SDS011;12205;50.600;4.608;2023-11-19T02:37:47;17.88;;;1.70;;
23990;SDS011;12205;50.600;4.608;2023-11-19T02:40:15;15.73;;;1.80;;
23990;SDS011;12205;50.600;4.608;2023-11-19T02:42:42;12.05;;;1.65;;
23990;SDS011;12205;50.600;4.608;2023-11-19T02:45:11;15.05;;;1.60;;
23990;SDS011;12205;50.600;4.608;2023-11-19T02:47:39;11.15;;;1.05;;
23990;SDS011;12205;50.600;4.608;2023-11-19T02:50:09;19.40;;;1.38;;
23990;SDS011;12205;50.600;4.608;2023-11-19T02:52:39;17.33;;;1.67;;
23990;SDS011;12205;50.600;4.608;2023-11-19T02:55:07;11.13;;;1.55;;
23990;SDS011;12205;50.600;4.608;2023-11-19T02:57:38;18.38;;;1.88;;
23990;SDS011;12205;50.600;4.608;2023-11-19T03:00:13;20.35;;;1.90;;
23990;SDS011;12205;50.600;4.608;2023-11-19T03:02:42;16.92;;;1.88;;
23990;SDS011;12205;50.600;4.608;2023-11-19T03:05:11;21.60;;;2.00;;
23990;SDS011;12205;50.600;4.608;2023-11-19T03:07:40;12.30;;;1.48;;
23990;SDS011;12205;50.600;4.608;2023-11-19T03:10:09;23.77;;;2.70;;
23990;SDS011;12205;50.600;4.608;2023-11-19T03:12:39;16.15;;;2.00;;
23990;SDS011;12205;50.600;4.608;2023-11-19T03:15:06;18.40;;;2.42;;
23990;SDS011;12205;50.600;4.608;2023-11-19T03:17:37;17.73;;;1.52;;
23990;SDS011;12205;50.600;4.608;2023-11-19T03:20:06;13.90;;;1.35;;
23990;SDS011;12205;50.600;4.608;2023-11-19T03:22:40;11.35;;;1.20;;
23990;SDS011;12205;50.600;4.608;2023-11-19T03:25:09;12.07;;;1.13;;
23990;SDS011;12205;50.600;4.608;2023-11-19T03:27:37;13.88;;;1.50;;
23990;SDS011;12205;50.600;4.608;2023-11-19T03:30:07;17.60;;;1.73;;
23990;SDS011;12205;50.600;4.608;2023-11-19T03:32:37;12.38;;;1.13;;
23990;SDS011;12205;50.600;4.608;2023-11-19T03:35:05;12.35;;;1.55;;
23990;SDS011;12205;50.600;4.608;2023-11-19T03:37:34;19.98;;;1.95;;
23990;SDS011;12205;50.600;4.608;2023-11-19T03:40:01;14.50;;;1.42;;
23990;SDS011;12205;50.600;4.608;2023-11-19T03:42:29;20.83;;;2.25;;
23990;SDS011;12205;50.600;4.608;2023-11-19T03:44:56;17.02;;;1.48;;
23990;SDS011;12205;50.600;4.608;2023-11-19T03:47:24;16.77;;;1.60;;
23990;SDS011;12205;50.600;4.608;2023-11-19T03:49:52;16.20;;;1.80;;
23990;SDS011;12205;50.600;4.608;2023-11-19T03:52:19;20.25;;;1.70;;
23990;SDS011;12205;50.600;4.608;2023-11-19T03:54:46;16.73;;;1.95;;
23990;SDS011;12205;50.600;4.608;2023-11-19T03:57:14;26.50;;;2.38;;
23990;SDS011;12205;50.600;4.608;2023-11-19T03:59:41;22.02;;;2.50;;
23990;SDS011;12205;50.600;4.608;2023-11-19T04:02:09;21.80;;;2.63;;
23990;SDS011;12205;50.600;4.608;2023-11-19T04:04:36;11.73;;;1.25;;
23990;SDS011;12205;50.600;4.608;2023-11-19T04:07:05;17.83;;;2.15;;
23990;SDS011;12205;50.600;4.608;2023-11-19T04:09:32;18.50;;;1.63;;
23990;SDS011;12205;50.600;4.608;2023-11-19T04:11:59;24.52;;;2.15;;
23990;SDS011;12205;50.600;4.608;2023-11-19T04:14:27;19.95;;;1.92;;
23990;SDS011;12205;50.600;4.608;2023-11-19T04:16:54;17.98;;;2.00;;
23990;SDS011;12205;50.600;4.608;2023-11-19T04:19:21;25.70;;;2.70;;
23990;SDS011;12205;50.600;4.608;2023-11-19T04:21:49;24.13;;;1.88;;
23990;SDS011;12205;50.600;4.608;2023-11-19T04:24:18;21.92;;;2.47;;
23990;SDS011;12205;50.600;4.608;2023-11-19T04:26:45;22.88;;;2.05;;
23990;SDS011;12205;50.600;4.608;2023-11-19T04:29:13;17.52;;;1.88;;
23990;SDS011;12205;50.600;4.608;2023-11-19T04:31:44;16.98;;;2.00;;
23990;SDS011;12205;50.600;4.608;2023-11-19T04:34:11;20.45;;;1.88;;
23990;SDS011;12205;50.600;4.608;2023-11-19T04:36:38;20.83;;;2.17;;
23990;SDS011;12205;50.600;4.608;2023-11-19T04:39:05;17.08;;;1.20;;
23990;SDS011;12205;50.600;4.608;2023-11-19T04:44:13;11.25;;;1.10;;
23990;SDS011;12205;50.600;4.608;2023-11-19T04:46:41;12.55;;;1.50;;
23990;SDS011;12205;50.600;4.608;2023-11-19T04:49:09;11.48;;;1.02;;
23990;SDS011;12205;50.600;4.608;2023-11-19T04:51:40;22.77;;;2.58;;
23990;SDS011;12205;50.600;4.608;2023-11-19T04:54:07;16.83;;;1.70;;
23990;SDS011;12205;50.600;4.608;2023-11-19T04:56:35;19.77;;;1.98;;
23990;SDS011;12205;50.600;4.608;2023-11-19T04:59:04;11.18;;;1.00;;
23990;SDS011;12205;50.600;4.608;2023-11-19T05:01:31;15.55;;;1.63;;
23990;SDS011;12205;50.600;4.608;2023-11-19T05:03:58;21.30;;;1.80;;
23990;SDS011;12205;50.600;4.608;2023-11-19T05:06:26;18.90;;;2.15;;
23990;SDS011;12205;50.600;4.608;2023-11-19T05:08:54;13.77;;;1.33;;
23990;SDS011;12205;50.600;4.608;2023-11-19T05:11:21;25.02;;;3.00;;
23990;SDS011;12205;50.600;4.608;2023-11-19T05:13:49;14.63;;;1.60;;
23990;SDS011;12205;50.600;4.608;2023-11-19T05:16:17;18.30;;;2.38;;
23990;SDS011;12205;50.600;4.608;2023-11-19T05:18:46;20.73;;;1.85;;
23990;SDS011;12205;50.600;4.608;2023-11-19T05:21:13;17.13;;;1.77;;
23990;SDS011;12205;50.600;4.608;2023-11-19T05:23:41;18.63;;;2.25;;
23990;SDS011;12205;50.600;4.608;2023-11-19T05:26:08;22.10;;;2.35;;
23990;SDS011;12205;50.600;4.608;2023-11-19T05:28:37;13.45;;;1.75;;
23990;SDS011;12205;50.600;4.608;2023-11-19T05:31:05;21.52;;;1.98;;
23990;SDS011;12205;50.600;4.608;2023-11-19T05:33:34;21.35;;;1.88;;
23990;SDS011;12205;50.600;4.608;2023-11-19T05:36:01;24.48;;;3.03;;
23990;SDS011;12205;50.600;4.608;2023-11-19T05:38:29;16.73;;;1.30;;
23990;SDS011;12205;50.600;4.608;2023-11-19T05:40:56;19.77;;;1.95;;
23990;SDS011;12205;50.600;4.608;2023-11-19T05:43:23;23.55;;;2.28;;
23990;SDS011;12205;50.600;4.608;2023-11-19T05:45:51;19.25;;;2.25;;
23990;SDS011;12205;50.600;4.608;2023-11-19T05:48:18;17.98;;;1.98;;
23990;SDS011;12205;50.600;4.608;2023-11-19T05:50:46;19.90;;;2.22;;
23990;SDS011;12205;50.600;4.608;2023-11-19T05:53:15;22.65;;;2.72;;
23990;SDS011;12205;50.600;4.608;2023-11-19T05:55:42;23.60;;;2.22;;
23990;SDS011;12205;50.600;4.608;2023-11-19T05:58:19;15.10;;;1.83;;
23990;SDS011;12205;50.600;4.608;2023-11-19T06:00:49;28.92;;;2.83;;
23990;SDS011;12205;50.600;4.608;2023-11-19T06:03:16;21.15;;;2.45;;
23990;SDS011;12205;50.600;4.608;2023-11-19T06:05:44;19.85;;;2.00;;
23990;SDS011;12205;50.600;4.608;2023-11-19T06:08:12;23.63;;;2.28;;
23990;SDS011;12205;50.600;4.608;2023-11-19T06:10:40;28.27;;;2.97;;
23990;SDS011;12205;50.600;4.608;2023-11-19T06:13:08;26.38;;;2.33;;
23990;SDS011;12205;50.600;4.608;2023-11-19T06:15:36;19.67;;;2.17;;
23990;SDS011;12205;50.600;4.608;2023-11-19T06:18:03;23.10;;;2.78;;
23990;SDS011;12205;50.600;4.608;2023-11-19T06:20:31;31.70;;;3.40;;
23990;SDS011;12205;50.600;4.608;2023-11-19T06:22:59;26.85;;;2.92;;
23990;SDS011;12205;50.600;4.608;2023-11-19T06:25:28;26.88;;;2.97;;
23990;SDS011;12205;50.600;4.608;2023-11-19T06:27:55;20.52;;;2.65;;
23990;SDS011;12205;50.600;4.608;2023-11-19T06:30:22;23.55;;;2.78;;
23990;SDS011;12205;50.600;4.608;2023-11-19T06:32:49;30.17;;;3.22;;
23990;SDS011;12205;50.600;4.608;2023-11-19T06:35:17;34.22;;;3.42;;
23990;SDS011;12205;50.600;4.608;2023-11-19T06:37:44;28.77;;;2.90;;
23990;SDS011;12205;50.600;4.608;2023-11-19T06:40:11;23.92;;;2.85;;
23990;SDS011;12205;50.600;4.608;2023-11-19T06:42:42;25.85;;;2.95;;
23990;SDS011;12205;50.600;4.608;2023-11-19T06:45:09;21.88;;;2.83;;
23990;SDS011;12205;50.600;4.608;2023-11-19T06:47:36;18.85;;;2.05;;
23990;SDS011;12205;50.600;4.608;2023-11-19T06:50:04;19.85;;;2.13;;
23990;SDS011;12205;50.600;4.608;2023-11-19T06:52:33;28.98;;;3.15;;
23990;SDS011;12205;50.600;4.608;2023-11-19T06:55:00;19.58;;;2.17;;
23990;SDS011;12205;50.600;4.608;2023-11-19T06:57:27;21.98;;;2.90;;
23990;SDS011;12205;50.600;4.608;2023-11-19T06:59:56;27.17;;;2.95;;
23990;SDS011;12205;50.600;4.608;2023-11-19T07:02:23;31.33;;;3.28;;
23990;SDS011;12205;50.600;4.608;2023-11-19T07:04:50;28.25;;;2.92;;
23990;SDS011;12205;50.600;4.608;2023-11-19T07:07:18;26.83;;;2.90;;
23990;SDS011;12205;50.600;4.608;2023-11-19T07:09:45;33.47;;;2.83;;
23990;SDS011;12205;50.600;4.608;2023-11-19T07:12:13;22.95;;;2.95;;
23990;SDS011;12205;50.600;4.608;2023-11-19T07:14:40;21.27;;;2.30;;
23990;SDS011;12205;50.600;4.608;2023-11-19T07:17:09;26.25;;;2.70;;
23990;SDS011;12205;50.600;4.608;2023-11-19T07:19:36;24.90;;;2.75;;
23990;SDS011;12205;50.600;4.608;2023-11-19T07:22:04;26.33;;;2.45;;
23990;SDS011;12205;50.600;4.608;2023-11-19T07:24:32;30.75;;;3.42;;
23990;SDS011;12205;50.600;4.608;2023-11-19T07:26:59;24.75;;;2.70;;
23990;SDS011;12205;50.600;4.608;2023-11-19T07:29:29;22.83;;;2.25;;
23990;SDS011;12205;50.600;4.608;2023-11-19T07:31:56;25.77;;;2.60;;
23990;SDS011;12205;50.600;4.608;2023-11-19T07:34:25;26.77;;;3.20;;
23990;SDS011;12205;50.600;4.608;2023-11-19T07:36:52;27.63;;;2.88;;
23990;SDS011;12205;50.600;4.608;2023-11-19T07:39:20;22.52;;;3.17;;
23990;SDS011;12205;50.600;4.608;2023-11-19T07:41:47;22.42;;;3.08;;
23990;SDS011;12205;50.600;4.608;2023-11-19T07:44:14;24.25;;;2.88;;
23990;SDS011;12205;50.600;4.608;2023-11-19T07:46:41;20.23;;;2.45;;
23990;SDS011;12205;50.600;4.608;2023-11-19T07:49:10;27.20;;;3.00;;
23990;SDS011;12205;50.600;4.608;2023-11-19T07:51:39;23.02;;;2.88;;
23990;SDS011;12205;50.600;4.608;2023-11-19T07:54:06;24.02;;;3.03;;
23990;SDS011;12205;50.600;4.608;2023-11-19T07:56:34;27.55;;;3.28;;
23990;SDS011;12205;50.600;4.608;2023-11-19T07:59:01;24.65;;;2.30;;
23990;SDS011;12205;50.600;4.608;2023-11-19T08:01:29;34.92;;;3.17;;
23990;SDS011;12205;50.600;4.608;2023-11-19T08:03:56;30.40;;;2.90;;
23990;SDS011;12205;50.600;4.608;2023-11-19T08:06:23;24.58;;;3.30;;
23990;SDS011;12205;50.600;4.608;2023-11-19T08:08:52;26.45;;;2.72;;
23990;SDS011;12205;50.600;4.608;2023-11-19T08:11:19;25.40;;;2.65;;
23990;SDS011;12205;50.600;4.608;2023-11-19T08:13:46;21.73;;;2.30;;
23990;SDS011;12205;50.600;4.608;2023-11-19T08:16:13;29.92;;;3.40;;
23990;SDS011;12205;50.600;4.608;2023-11-19T08:18:41;21.95;;;2.22;;
23990;SDS011;12205;50.600;4.608;2023-11-19T08:21:09;27.38;;;3.05;;
23990;SDS011;12205;50.600;4.608;2023-11-19T08:23:36;17.23;;;2.03;;
23990;SDS011;12205;50.600;4.608;2023-11-19T08:26:05;25.13;;;2.67;;
23990;SDS011;12205;50.600;4.608;2023-11-19T08:28:33;29.00;;;3.03;;
23990;SDS011;12205;50.600;4.608;2023-11-19T08:31:00;22.25;;;2.33;;
23990;SDS011;12205;50.600;4.608;2023-11-19T08:33:29;24.60;;;2.65;;
23990;SDS011;12205;50.600;4.608;2023-11-19T08:35:56;25.00;;;2.47;;
23990;SDS011;12205;50.600;4.608;2023-11-19T08:38:24;22.33;;;2.92;;
23990;SDS011;12205;50.600;4.608;2023-11-19T08:40:51;29.35;;;3.08;;
23990;SDS011;12205;50.600;4.608;2023-11-19T08:43:20;20.50;;;2.17;;
23990;SDS011;12205;50.600;4.608;2023-11-19T08:45:48;23.33;;;2.35;;
23990;SDS011;12205;50.600;4.608;2023-11-19T08:48:15;16.10;;;2.13;;
23990;SDS011;12205;50.600;4.608;2023-11-19T08:50:42;22.15;;;2.30;;
23990;SDS011;12205;50.600;4.608;2023-11-19T08:53:09;17.42;;;2.05;;
23990;SDS011;12205;50.600;4.608;2023-11-19T08:55:36;21.15;;;2.30;;
23990;SDS011;12205;50.600;4.608;2023-11-19T08:58:04;30.52;;;2.70;;
23990;SDS011;12205;50.600;4.608;2023-11-19T09:00:33;18.10;;;2.28;;
23990;SDS011;12205;50.600;4.608;2023-11-19T09:03:00;19.17;;;2.25;;
23990;SDS011;12205;50.600;4.608;2023-11-19T09:05:27;20.75;;;2.03;;
23990;SDS011;12205;50.600;4.608;2023-11-19T09:07:54;25.48;;;2.85;;
23990;SDS011;12205;50.600;4.608;2023-11-19T09:10:21;15.35;;;1.98;;
23990;SDS011;12205;50.600;4.608;2023-11-19T09:12:48;23.25;;;2.40;;
23990;SDS011;12205;50.600;4.608;2023-11-19T09:15:15;26.80;;;2.47;;
23990;SDS011;12205;50.600;4.608;2023-11-19T09:17:44;27.23;;;2.45;;
23990;SDS011;12205;50.600;4.608;2023-11-19T09:20:11;20.35;;;2.03;;
23990;SDS011;12205;50.600;4.608;2023-11-19T09:22:40;26.75;;;2.47;;
23990;SDS011;12205;50.600;4.608;2023-11-19T09:25:07;43.10;;;3.20;;
23990;SDS011;12205;50.600;4.608;2023-11-19T09:27:35;28.75;;;3.22;;
23990;SDS011;12205;50.600;4.608;2023-11-19T09:30:02;23.63;;;2.50;;
23990;SDS011;12205;50.600;4.608;2023-11-19T09:32:31;24.65;;;2.38;;
23990;SDS011;12205;50.600;4.608;2023-11-19T09:34:59;25.83;;;2.83;;
23990;SDS011;12205;50.600;4.608;2023-11-19T09:37:28;29.17;;;2.72;;
23990;SDS011;12205;50.600;4.608;2023-11-19T09:39:55;29.63;;;3.40;;
23990;SDS011;12205;50.600;4.608;2023-11-19T09:42:23;24.35;;;2.35;;
23990;SDS011;12205;50.600;4.608;2023-11-19T09:44:50;30.15;;;2.92;;
23990;SDS011;12205;50.600;4.608;2023-11-19T09:47:19;30.83;;;3.00;;
23990;SDS011;12205;50.600;4.608;2023-11-19T09:49:47;20.50;;;2.33;;
23990;SDS011;12205;50.600;4.608;2023-11-19T09:52:17;25.05;;;2.83;;
23990;SDS011;12205;50.600;4.608;2023-11-19T09:54:44;18.30;;;2.25;;
23990;SDS011;12205;50.600;4.608;2023-11-19T09:57:11;31.67;;;3.25;;
23990;SDS011;12205;50.600;4.608;2023-11-19T09:59:42;31.38;;;2.80;;
23990;SDS011;12205;50.600;4.608;2023-11-19T10:02:11;20.10;;;2.42;;
23990;SDS011;12205;50.600;4.608;2023-11-19T10:04:40;19.20;;;1.98;;
23990;SDS011;12205;50.600;4.608;2023-11-19T10:07:12;26.75;;;2.63;;
23990;SDS011;12205;50.600;4.608;2023-11-19T10:09:40;22.23;;;2.10;;
23990;SDS011;12205;50.600;4.608;2023-11-19T10:12:08;20.42;;;2.20;;
23990;SDS011;12205;50.600;4.608;2023-11-19T10:14:35;17.63;;;1.85;;
23990;SDS011;12205;50.600;4.608;2023-11-19T10:17:06;33.33;;;3.17;;
23990;SDS011;12205;50.600;4.608;2023-11-19T10:19:34;22.90;;;2.60;;
23990;SDS011;12205;50.600;4.608;2023-11-19T10:22:02;25.20;;;2.60;;
23990;SDS011;12205;50.600;4.608;2023-11-19T10:24:31;22.77;;;2.42;;
23990;SDS011;12205;50.600;4.608;2023-11-19T10:27:00;20.15;;;2.63;;
23990;SDS011;12205;50.600;4.608;2023-11-19T10:29:29;22.02;;;2.20;;
23990;SDS011;12205;50.600;4.608;2023-11-19T10:31:56;20.58;;;2.30;;
23990;SDS011;12205;50.600;4.608;2023-11-19T10:34:25;22.42;;;2.25;;
23990;SDS011;12205;50.600;4.608;2023-11-19T10:36:54;15.57;;;2.20;;
23990;SDS011;12205;50.600;4.608;2023-11-19T10:39:22;22.67;;;2.80;;
23990;SDS011;12205;50.600;4.608;2023-11-19T10:41:49;20.25;;;1.98;;
23990;SDS011;12205;50.600;4.608;2023-11-19T10:44:32;22.00;;;2.60;;
23990;SDS011;12205;50.600;4.608;2023-11-19T10:47:01;21.67;;;2.08;;
23990;SDS011;12205;50.600;4.608;2023-11-19T10:49:31;21.17;;;2.13;;
23990;SDS011;12205;50.600;4.608;2023-11-19T10:52:00;18.48;;;2.30;;
23990;SDS011;12205;50.600;4.608;2023-11-19T10:54:33;25.02;;;2.55;;
23990;SDS011;12205;50.600;4.608;2023-11-19T10:57:01;25.70;;;2.72;;
23990;SDS011;12205;50.600;4.608;2023-11-19T10:59:33;27.45;;;2.83;;
23990;SDS011;12205;50.600;4.608;2023-11-19T11:02:03;28.75;;;2.83;;
23990;SDS011;12205;50.600;4.608;2023-11-19T11:04:37;22.23;;;2.47;;
23990;SDS011;12205;50.600;4.608;2023-11-19T11:07:07;28.75;;;3.03;;
23990;SDS011;12205;50.600;4.608;2023-11-19T11:09:36;16.70;;;1.85;;
23990;SDS011;12205;50.600;4.608;2023-11-19T11:12:04;28.17;;;3.30;;
23990;SDS011;12205;50.600;4.608;2023-11-19T11:14:37;27.10;;;3.17;;
23990;SDS011;12205;50.600;4.608;2023-11-19T11:17:08;20.88;;;2.10;;
23990;SDS011;12205;50.600;4.608;2023-11-19T11:19:39;20.70;;;2.35;;
23990;SDS011;12205;50.600;4.608;2023-11-19T11:22:09;26.45;;;2.83;;
23990;SDS011;12205;50.600;4.608;2023-11-19T11:27:46;28.13;;;3.13;;
23990;SDS011;12205;50.600;4.608;2023-11-19T11:30:31;30.58;;;3.20;;
23990;SDS011;12205;50.600;4.608;2023-11-19T11:33:20;28.02;;;2.80;;
23990;SDS011;12205;50.600;4.608;2023-11-19T11:36:10;23.23;;;2.58;;
23990;SDS011;12205;50.600;4.608;2023-11-19T11:38:45;30.20;;;3.33;;
23990;SDS011;12205;50.600;4.608;2023-11-19T11:41:16;21.58;;;2.30;;
23990;SDS011;12205;50.600;4.608;2023-11-19T11:43:48;20.83;;;2.50;;
23990;SDS011;12205;50.600;4.608;2023-11-19T11:49:25;17.52;;;2.30;;
23990;SDS011;12205;50.600;4.608;2023-11-19T11:52:01;16.02;;;2.10;;
23990;SDS011;12205;50.600;4.608;2023-11-19T11:54:29;16.55;;;1.98;;
23990;SDS011;12205;50.600;4.608;2023-11-19T11:57:01;20.80;;;1.95;;
23990;SDS011;12205;50.600;4.608;2023-11-19T11:59:36;20.45;;;2.28;;
23990;SDS011;12205;50.600;4.608;2023-11-19T12:02:14;20.20;;;2.20;;
23990;SDS011;12205;50.600;4.608;2023-11-19T12:04:46;17.08;;;1.70;;
23990;SDS011;12205;50.600;4.608;2023-11-19T12:07:16;19.98;;;2.38;;
23990;SDS011;12205;50.600;4.608;2023-11-19T12:09:47;20.23;;;2.70;;
23990;SDS011;12205;50.600;4.608;2023-11-19T12:12:19;17.52;;;2.03;;
23990;SDS011;12205;50.600;4.608;2023-11-19T12:15:01;22.13;;;2.50;;
23990;SDS011;12205;50.600;4.608;2023-11-19T12:17:46;19.85;;;2.20;;
23990;SDS011;12205;50.600;4.608;2023-11-19T12:20:18;19.70;;;2.53;;
23990;SDS011;12205;50.600;4.608;2023-11-19T12:22:47;20.40;;;2.25;;
23990;SDS011;12205;50.600;4.608;2023-11-19T12:25:16;26.17;;;3.10;;
23990;SDS011;12205;50.600;4.608;2023-11-19T12:27:44;18.02;;;2.00;;
23990;SDS011;12205;50.600;4.608;2023-11-19T12:30:16;17.92;;;2.58;;
23990;SDS011;12205;50.600;4.608;2023-11-19T12:32:49;17.52;;;2.10;;
23990;SDS011;12205;50.600;4.608;2023-11-19T12:35:18;31.27;;;3.50;;
23990;SDS011;12205;50.600;4.608;2023-11-19T12:37:46;16.10;;;2.13;;
23990;SDS011;12205;50.600;4.608;2023-11-19T12:40:15;13.63;;;1.65;;
23990;SDS011;12205;50.600;4.608;2023-11-19T12:42:44;20.33;;;2.53;;
23990;SDS011;12205;50.600;4.608;2023-11-19T12:45:11;16.80;;;2.05;;
23990;SDS011;12205;50.600;4.608;2023-11-19T12:47:38;20.58;;;2.33;;
23990;SDS011;12205;50.600;4.608;2023-11-19T12:50:08;26.52;;;2.45;;
23990;SDS011;12205;50.600;4.608;2023-11-19T12:52:36;25.58;;;2.40;;
23990;SDS011;12205;50.600;4.608;2023-11-19T12:55:04;24.38;;;2.58;;
23990;SDS011;12205;50.600;4.608;2023-11-19T12:57:51;24.70;;;3.05;;
23990;SDS011;12205;50.600;4.608;2023-11-19T13:00:21;22.95;;;2.35;;
23990;SDS011;12205;50.600;4.608;2023-11-19T13:02:51;30.83;;;3.10;;
23990;SDS011;12205;50.600;4.608;2023-11-19T13:05:28;27.77;;;2.67;;
23990;SDS011;12205;50.600;4.608;2023-11-19T13:07:58;24.77;;;2.78;;
23990;SDS011;12205;50.600;4.608;2023-11-19T13:10:27;26.98;;;3.20;;
23990;SDS011;12205;50.600;4.608;2023-11-19T13:13:01;21.13;;;1.77;;
23990;SDS011;12205;50.600;4.608;2023-11-19T13:15:30;25.08;;;2.53;;
23990;SDS011;12205;50.600;4.608;2023-11-19T13:17:58;25.98;;;3.10;;
23990;SDS011;12205;50.600;4.608;2023-11-19T13:20:25;25.27;;;3.28;;
23990;SDS011;12205;50.600;4.608;2023-11-19T13:22:55;21.52;;;2.65;;
23990;SDS011;12205;50.600;4.608;2023-11-19T13:25:23;24.33;;;2.80;;
23990;SDS011;12205;50.600;4.608;2023-11-19T13:27:51;25.92;;;2.90;;
23990;SDS011;12205;50.600;4.608;2023-11-19T13:30:18;27.15;;;3.05;;
23990;SDS011;12205;50.600;4.608;2023-11-19T13:32:47;22.77;;;2.55;;
23990;SDS011;12205;50.600;4.608;2023-11-19T13:35:14;23.73;;;2.75;;
23990;SDS011;12205;50.600;4.608;2023-11-19T13:37:43;25.15;;;2.63;;
23990;SDS011;12205;50.600;4.608;2023-11-19T13:40:12;22.98;;;2.63;;
23990;SDS011;12205;50.600;4.608;2023-11-19T13:42:40;23.35;;;2.50;;
23990;SDS011;12205;50.600;4.608;2023-11-19T13:45:08;23.85;;;2.45;;
23990;SDS011;12205;50.600;4.608;2023-11-19T13:47:39;29.50;;;3.65;;
23990;SDS011;12205;50.600;4.608;2023-11-19T13:50:08;28.85;;;3.30;;
23990;SDS011;12205;50.600;4.608;2023-11-19T13:52:36;22.45;;;2.42;;
23990;SDS011;12205;50.600;4.608;2023-11-19T13:55:08;22.80;;;2.50;;
23990;SDS011;12205;50.600;4.608;2023-11-19T13:57:36;25.15;;;2.97;;
23990;SDS011;12205;50.600;4.608;2023-11-19T14:00:04;26.80;;;2.97;;
23990;SDS011;12205;50.600;4.608;2023-11-19T14:02:36;24.65;;;2.67;;
23990;SDS011;12205;50.600;4.608;2023-11-19T14:05:03;22.08;;;2.10;;
23990;SDS011;12205;50.600;4.608;2023-11-19T14:07:31;27.27;;;2.22;;
23990;SDS011;12205;50.600;4.608;2023-11-19T14:09:58;15.00;;;2.15;;
23990;SDS011;12205;50.600;4.608;2023-11-19T14:12:26;26.88;;;2.47;;
23990;SDS011;12205;50.600;4.608;2023-11-19T14:14:54;27.05;;;3.53;;
23990;SDS011;12205;50.600;4.608;2023-11-19T14:17:21;20.27;;;2.60;;
23990;SDS011;12205;50.600;4.608;2023-11-19T14:19:48;26.50;;;2.97;;
23990;SDS011;12205;50.600;4.608;2023-11-19T14:22:15;23.52;;;2.75;;
23990;SDS011;12205;50.600;4.608;2023-11-19T14:24:42;23.90;;;2.90;;
23990;SDS011;12205;50.600;4.608;2023-11-19T14:27:10;22.52;;;2.03;;
23990;SDS011;12205;50.600;4.608;2023-11-19T14:29:38;24.15;;;3.28;;
23990;SDS011;12205;50.600;4.608;2023-11-19T14:32:06;22.10;;;2.22;;
23990;SDS011;12205;50.600;4.608;2023-11-19T14:34:33;19.35;;;2.00;;
23990;SDS011;12205;50.600;4.608;2023-11-19T14:37:00;23.70;;;2.40;;
23990;SDS011;12205;50.600;4.608;2023-11-19T14:39:26;22.23;;;2.72;;
23990;SDS011;12205;50.600;4.608;2023-11-19T14:41:54;25.55;;;2.80;;
23990;SDS011;12205;50.600;4.608;2023-11-19T14:44:23;23.10;;;2.63;;
23990;SDS011;12205;50.600;4.608;2023-11-19T14:46:52;21.60;;;2.20;;
23990;SDS011;12205;50.600;4.608;2023-11-19T14:49:19;20.80;;;2.38;;
23990;SDS011;12205;50.600;4.608;2023-11-19T14:51:46;26.00;;;2.67;;
23990;SDS011;12205;50.600;4.608;2023-11-19T14:54:13;27.02;;;3.08;;